sensor_id;sensor_type;location;lat;lon;timestamp;P1;durP1;ratioP1;P2;durP2;ratioP2
69775;SDS011;57049;51.450;-2.516;2023-03-26T00:01:05;1999.90;;;999.90;;
69775;SDS011;57049;51.450;-2.516;2023-03-26T00:03:33;1999.90;;;999.90;;
69775;SDS011;57049;51.450;-2.516;2023-03-26T00:06:03;1999.90;;;999.90;;
69775;SDS011;57049;51.450;-2.516;2023-03-26T00:08:34;1999.90;;;999.90;;
69775;SDS011;57049;51.450;-2.516;2023-03-26T00:11:01;1999.90;;;999.90;;
69775;SDS011;57049;51.450;-2.516;2023-03-26T00:13:30;1999.90;;;999.90;;
69775;SDS011;57049;51.450;-2.516;2023-03-26T00:15:57;1999.90;;;999.90;;
69775;SDS011;57049;51.450;-2.516;2023-03-26T00:18:23;1999.90;;;999.90;;
69775;SDS011;57049;51.450;-2.516;2023-03-26T00:20:54;1999.90;;;999.90;;
69775;SDS011;57049;51.450;-2.516;2023-03-26T00:23:20;1999.90;;;999.90;;
69775;SDS011;57049;51.450;-2.516;2023-03-26T00:25:46;1999.90;;;999.90;;
69775;SDS011;57049;51.450;-2.516;2023-03-26T00:28:15;1999.90;;;999.90;;
69775;SDS011;57049;51.450;-2.516;2023-03-26T00:30:41;1999.90;;;999.90;;
69775;SDS011;57049;51.450;-2.516;2023-03-26T00:33:07;1999.90;;;999.90;;
69775;SDS011;57049;51.450;-2.516;2023-03-26T00:35:36;1999.90;;;999.90;;
69775;SDS011;57049;51.450;-2.516;2023-03-26T00:38:02;1999.90;;;999.90;;
69775;SDS011;57049;51.450;-2.516;2023-03-26T00:40:28;1999.90;;;999.90;;
69775;SDS011;57049;51.450;-2.516;2023-03-26T00:42:54;1999.90;;;999.90;;
69775;SDS011;57049;51.450;-2.516;2023-03-26T00:45:20;1999.90;;;999.90;;
69775;SDS011;57049;51.450;-2.516;2023-03-26T00:47:46;1999.90;;;999.90;;
69775;SDS011;57049;51.450;-2.516;2023-03-26T00:50:12;1999.90;;;999.90;;
69775;SDS011;57049;51.450;-2.516;2023-03-26T00:52:43;1999.90;;;999.90;;
69775;SDS011;57049;51.450;-2.516;2023-03-26T00:55:10;1999.90;;;999.90;;
69775;SDS011;57049;51.450;-2.516;2023-03-26T00:57:37;1999.90;;;999.90;;
69775;SDS011;57049;51.450;-2.516;2023-03-26T01:00:09;1999.90;;;999.90;;
69775;SDS011;57049;51.450;-2.516;2023-03-26T01:02:39;1999.90;;;999.90;;
69775;SDS011;57049;51.450;-2.516;2023-03-26T01:05:37;1999.90;;;999.90;;
69775;SDS011;57049;51.450;-2.516;2023-03-26T01:08:15;1999.90;;;999.90;;
69775;SDS011;57049;51.450;-2.516;2023-03-26T01:10:46;1999.90;;;999.90;;
69775;SDS011;57049;51.450;-2.516;2023-03-26T01:13:17;1999.90;;;999.90;;
69775;SDS011;57049;51.450;-2.516;2023-03-26T01:15:45;1999.90;;;999.90;;
69775;SDS011;57049;51.450;-2.516;2023-03-26T01:18:19;1999.90;;;999.90;;
69775;SDS011;57049;51.450;-2.516;2023-03-26T01:20:50;1999.90;;;999.90;;
69775;SDS011;57049;51.450;-2.516;2023-03-26T01:23:23;1999.90;;;999.90;;
69775;SDS011;57049;51.450;-2.516;2023-03-26T01:26:03;1999.90;;;999.90;;
69775;SDS011;57049;51.450;-2.516;2023-03-26T01:28:36;1999.90;;;999.90;;
69775;SDS011;57049;51.450;-2.516;2023-03-26T01:33:59;1999.90;;;999.90;;
69775;SDS011;57049;51.450;-2.516;2023-03-26T01:39:27;1999.90;;;999.90;;
69775;SDS011;57049;51.450;-2.516;2023-03-26T01:42:07;1999.90;;;999.90;;
69775;SDS011;57049;51.450;-2.516;2023-03-26T01:44:43;1999.90;;;999.90;;
69775;SDS011;57049;51.450;-2.516;2023-03-26T01:47:17;1999.90;;;999.90;;
69775;SDS011;57049;51.450;-2.516;2023-03-26T01:49:45;1999.90;;;999.90;;
69775;SDS011;57049;51.450;-2.516;2023-03-26T01:52:11;1999.90;;;999.90;;
69775;SDS011;57049;51.450;-2.516;2023-03-26T01:54:40;1999.90;;;999.90;;
69775;SDS011;57049;51.450;-2.516;2023-03-26T01:57:19;1999.90;;;999.90;;
69775;SDS011;57049;51.450;-2.516;2023-03-26T02:08:44;1999.90;;;999.90;;
69775;SDS011;57049;51.450;-2.516;2023-03-26T02:11:16;1999.90;;;999.90;;
69775;SDS011;57049;51.450;-2.516;2023-03-26T02:13:43;1999.90;;;999.90;;
69775;SDS011;57049;51.450;-2.516;2023-03-26T02:16:11;1999.90;;;999.90;;
69775;SDS011;57049;51.450;-2.516;2023-03-26T02:18:41;1999.90;;;999.90;;
69775;SDS011;57049;51.450;-2.516;2023-03-26T02:21:09;1999.90;;;999.90;;
69775;SDS011;57049;51.450;-2.516;2023-03-26T02:23:37;1999.90;;;999.90;;
69775;SDS011;57049;51.450;-2.516;2023-03-26T02:26:05;1999.90;;;999.90;;
69775;SDS011;57049;51.450;-2.516;2023-03-26T02:28:34;1999.90;;;999.90;;
69775;SDS011;57049;51.450;-2.516;2023-03-26T02:31:00;1999.90;;;999.90;;
69775;SDS011;57049;51.450;-2.516;2023-03-26T02:33:26;1999.90;;;999.90;;
69775;SDS011;57049;51.450;-2.516;2023-03-26T02:35:52;1999.90;;;999.90;;
69775;SDS011;57049;51.450;-2.516;2023-03-26T02:38:18;1999.90;;;999.90;;
69775;SDS011;57049;51.450;-2.516;2023-03-26T02:40:44;1999.90;;;999.90;;
69775;SDS011;57049;51.450;-2.516;2023-03-26T02:43:09;1999.90;;;999.90;;
69775;SDS011;57049;51.450;-2.516;2023-03-26T02:45:34;1999.90;;;999.90;;
69775;SDS011;57049;51.450;-2.516;2023-03-26T02:48:00;1999.90;;;999.90;;
69775;SDS011;57049;51.450;-2.516;2023-03-26T02:50:25;1999.90;;;999.90;;
69775;SDS011;57049;51.450;-2.516;2023-03-26T02:52:51;1999.90;;;999.90;;
69775;SDS011;57049;51.450;-2.516;2023-03-26T02:55:17;1999.90;;;999.90;;
69775;SDS011;57049;51.450;-2.516;2023-03-26T02:57:43;1999.90;;;999.90;;
69775;SDS011;57049;51.450;-2.516;2023-03-26T03:00:09;1999.90;;;999.90;;
69775;SDS011;57049;51.450;-2.516;2023-03-26T03:02:38;1999.90;;;999.90;;
69775;SDS011;57049;51.450;-2.516;2023-03-26T03:05:03;1999.90;;;999.90;;
69775;SDS011;57049;51.450;-2.516;2023-03-26T03:07:29;1999.90;;;999.90;;
69775;SDS011;57049;51.450;-2.516;2023-03-26T03:09:55;1999.90;;;999.90;;
69775;SDS011;57049;51.450;-2.516;2023-03-26T03:12:26;1999.90;;;999.90;;
69775;SDS011;57049;51.450;-2.516;2023-03-26T03:14:52;1999.90;;;999.90;;
69775;SDS011;57049;51.450;-2.516;2023-03-26T03:17:17;1999.90;;;999.90;;
69775;SDS011;57049;51.450;-2.516;2023-03-26T03:19:44;1999.90;;;999.90;;
69775;SDS011;57049;51.450;-2.516;2023-03-26T03:22:10;1999.90;;;999.90;;
69775;SDS011;57049;51.450;-2.516;2023-03-26T03:24:36;1999.90;;;999.90;;
69775;SDS011;57049;51.450;-2.516;2023-03-26T03:27:02;1999.90;;;999.90;;
69775;SDS011;57049;51.450;-2.516;2023-03-26T03:29:28;1999.90;;;999.90;;
69775;SDS011;57049;51.450;-2.516;2023-03-26T03:31:54;1999.90;;;999.90;;
69775;SDS011;57049;51.450;-2.516;2023-03-26T03:34:19;1999.90;;;999.90;;
69775;SDS011;57049;51.450;-2.516;2023-03-26T03:36:45;1999.90;;;999.90;;
69775;SDS011;57049;51.450;-2.516;2023-03-26T03:39:13;1999.90;;;999.90;;
69775;SDS011;57049;51.450;-2.516;2023-03-26T03:41:39;1999.90;;;999.90;;
69775;SDS011;57049;51.450;-2.516;2023-03-26T03:44:04;1999.90;;;999.90;;
69775;SDS011;57049;51.450;-2.516;2023-03-26T03:46:30;1999.90;;;999.90;;
69775;SDS011;57049;51.450;-2.516;2023-03-26T03:48:55;1999.90;;;999.90;;
69775;SDS011;57049;51.450;-2.516;2023-03-26T03:51:21;1999.90;;;999.90;;
69775;SDS011;57049;51.450;-2.516;2023-03-26T03:53:48;1999.90;;;999.90;;
69775;SDS011;57049;51.450;-2.516;2023-03-26T03:56:14;1999.90;;;999.90;;
69775;SDS011;57049;51.450;-2.516;2023-03-26T03:58:42;1999.90;;;999.90;;
69775;SDS011;57049;51.450;-2.516;2023-03-26T04:01:10;1999.90;;;999.90;;
69775;SDS011;57049;51.450;-2.516;2023-03-26T04:03:37;1999.90;;;999.90;;
69775;SDS011;57049;51.450;-2.516;2023-03-26T04:06:04;1999.90;;;999.90;;
69775;SDS011;57049;51.450;-2.516;2023-03-26T04:08:31;1999.90;;;999.90;;
69775;SDS011;57049;51.450;-2.516;2023-03-26T04:10:57;1999.90;;;999.90;;
69775;SDS011;57049;51.450;-2.516;2023-03-26T04:13:22;1999.90;;;999.90;;
69775;SDS011;57049;51.450;-2.516;2023-03-26T04:15:48;1999.90;;;999.90;;
69775;SDS011;57049;51.450;-2.516;2023-03-26T04:18:13;1999.90;;;999.90;;
69775;SDS011;57049;51.450;-2.516;2023-03-26T04:20:40;1999.90;;;999.90;;
69775;SDS011;57049;51.450;-2.516;2023-03-26T04:23:17;1999.90;;;999.90;;
69775;SDS011;57049;51.450;-2.516;2023-03-26T04:25:47;1999.90;;;999.90;;
69775;SDS011;57049;51.450;-2.516;2023-03-26T04:29:03;1999.90;;;999.90;;
69775;SDS011;57049;51.450;-2.516;2023-03-26T04:31:24;1999.90;;;999.90;;
69775;SDS011;57049;51.450;-2.516;2023-03-26T04:33:53;1999.90;;;999.90;;
69775;SDS011;57049;51.450;-2.516;2023-03-26T04:36:26;1999.90;;;999.90;;
69775;SDS011;57049;51.450;-2.516;2023-03-26T04:38:53;1999.90;;;999.90;;
69775;SDS011;57049;51.450;-2.516;2023-03-26T04:41:22;1999.90;;;999.90;;
69775;SDS011;57049;51.450;-2.516;2023-03-26T04:43:50;1999.90;;;999.90;;
69775;SDS011;57049;51.450;-2.516;2023-03-26T04:46:19;1999.90;;;999.90;;
69775;SDS011;57049;51.450;-2.516;2023-03-26T04:48:51;1999.90;;;999.90;;
69775;SDS011;57049;51.450;-2.516;2023-03-26T04:51:18;1999.90;;;999.90;;
69775;SDS011;57049;51.450;-2.516;2023-03-26T04:53:52;1999.90;;;999.90;;
69775;SDS011;57049;51.450;-2.516;2023-03-26T04:58:59;1999.90;;;999.90;;
69775;SDS011;57049;51.450;-2.516;2023-03-26T05:01:26;1999.90;;;999.90;;
69775;SDS011;57049;51.450;-2.516;2023-03-26T05:03:55;1999.90;;;999.90;;
69775;SDS011;57049;51.450;-2.516;2023-03-26T05:06:23;1999.90;;;999.90;;
69775;SDS011;57049;51.450;-2.516;2023-03-26T05:08:51;1999.90;;;999.90;;
69775;SDS011;57049;51.450;-2.516;2023-03-26T05:11:18;1999.90;;;999.90;;
69775;SDS011;57049;51.450;-2.516;2023-03-26T05:13:43;1999.90;;;999.90;;
69775;SDS011;57049;51.450;-2.516;2023-03-26T05:16:09;1999.90;;;999.90;;
69775;SDS011;57049;51.450;-2.516;2023-03-26T05:18:35;1999.90;;;999.90;;
69775;SDS011;57049;51.450;-2.516;2023-03-26T05:21:01;1999.90;;;999.90;;
69775;SDS011;57049;51.450;-2.516;2023-03-26T05:23:26;1999.90;;;999.90;;
69775;SDS011;57049;51.450;-2.516;2023-03-26T05:25:52;1999.90;;;999.90;;
69775;SDS011;57049;51.450;-2.516;2023-03-26T05:28:18;1999.90;;;999.90;;
69775;SDS011;57049;51.450;-2.516;2023-03-26T05:30:45;1999.90;;;999.90;;
69775;SDS011;57049;51.450;-2.516;2023-03-26T05:33:10;1999.90;;;999.90;;
69775;SDS011;57049;51.450;-2.516;2023-03-26T05:35:36;1999.90;;;999.90;;
69775;SDS011;57049;51.450;-2.516;2023-03-26T05:38:02;1999.90;;;999.90;;
69775;SDS011;57049;51.450;-2.516;2023-03-26T05:40:27;1999.90;;;999.90;;
69775;SDS011;57049;51.450;-2.516;2023-03-26T05:42:53;1999.90;;;999.90;;
69775;SDS011;57049;51.450;-2.516;2023-03-26T05:45:18;1999.90;;;999.90;;
69775;SDS011;57049;51.450;-2.516;2023-03-26T05:47:45;1999.90;;;999.90;;
69775;SDS011;57049;51.450;-2.516;2023-03-26T05:50:13;1999.90;;;999.90;;
69775;SDS011;57049;51.450;-2.516;2023-03-26T05:52:39;1999.90;;;999.90;;
69775;SDS011;57049;51.450;-2.516;2023-03-26T05:55:05;1999.90;;;999.90;;
69775;SDS011;57049;51.450;-2.516;2023-03-26T05:57:32;1999.90;;;999.90;;
69775;SDS011;57049;51.450;-2.516;2023-03-26T05:59:59;1999.90;;;999.90;;
69775;SDS011;57049;51.450;-2.516;2023-03-26T06:02:25;1999.90;;;999.90;;
69775;SDS011;57049;51.450;-2.516;2023-03-26T06:04:53;1999.90;;;999.90;;
69775;SDS011;57049;51.450;-2.516;2023-03-26T06:07:21;1999.90;;;999.90;;
69775;SDS011;57049;51.450;-2.516;2023-03-26T06:09:47;1999.90;;;999.90;;
69775;SDS011;57049;51.450;-2.516;2023-03-26T06:12:13;1999.90;;;999.90;;
69775;SDS011;57049;51.450;-2.516;2023-03-26T06:14:39;1999.90;;;999.90;;
69775;SDS011;57049;51.450;-2.516;2023-03-26T06:17:07;1999.90;;;999.90;;
69775;SDS011;57049;51.450;-2.516;2023-03-26T06:19:33;1999.90;;;999.90;;
69775;SDS011;57049;51.450;-2.516;2023-03-26T06:21:58;1999.90;;;999.90;;
69775;SDS011;57049;51.450;-2.516;2023-03-26T06:24:24;1999.90;;;999.90;;
69775;SDS011;57049;51.450;-2.516;2023-03-26T06:26:50;1999.90;;;999.90;;
69775;SDS011;57049;51.450;-2.516;2023-03-26T06:29:16;1999.90;;;999.90;;
69775;SDS011;57049;51.450;-2.516;2023-03-26T06:31:42;1999.90;;;999.90;;
69775;SDS011;57049;51.450;-2.516;2023-03-26T06:34:07;1999.90;;;999.90;;
69775;SDS011;57049;51.450;-2.516;2023-03-26T06:36:33;1999.90;;;999.90;;
69775;SDS011;57049;51.450;-2.516;2023-03-26T06:38:58;1999.90;;;999.90;;
69775;SDS011;57049;51.450;-2.516;2023-03-26T06:41:24;1999.90;;;999.90;;
69775;SDS011;57049;51.450;-2.516;2023-03-26T06:43:49;1999.90;;;999.90;;
69775;SDS011;57049;51.450;-2.516;2023-03-26T06:46:15;1999.90;;;999.90;;
69775;SDS011;57049;51.450;-2.516;2023-03-26T06:48:40;1999.90;;;999.90;;
69775;SDS011;57049;51.450;-2.516;2023-03-26T06:51:07;1999.90;;;999.90;;
69775;SDS011;57049;51.450;-2.516;2023-03-26T06:53:33;1999.90;;;999.90;;
69775;SDS011;57049;51.450;-2.516;2023-03-26T06:55:59;1999.90;;;999.90;;
69775;SDS011;57049;51.450;-2.516;2023-03-26T06:58:25;1999.90;;;999.90;;
69775;SDS011;57049;51.450;-2.516;2023-03-26T07:00:54;1999.90;;;999.90;;
69775;SDS011;57049;51.450;-2.516;2023-03-26T07:03:20;1999.90;;;999.90;;
69775;SDS011;57049;51.450;-2.516;2023-03-26T07:05:47;1999.90;;;999.90;;
69775;SDS011;57049;51.450;-2.516;2023-03-26T07:08:12;1999.90;;;999.90;;
69775;SDS011;57049;51.450;-2.516;2023-03-26T07:10:38;1999.90;;;999.90;;
69775;SDS011;57049;51.450;-2.516;2023-03-26T07:13:04;1999.90;;;999.90;;
69775;SDS011;57049;51.450;-2.516;2023-03-26T07:15:30;1999.90;;;999.90;;
69775;SDS011;57049;51.450;-2.516;2023-03-26T07:17:55;1999.90;;;999.90;;
69775;SDS011;57049;51.450;-2.516;2023-03-26T07:20:21;1999.90;;;999.90;;
69775;SDS011;57049;51.450;-2.516;2023-03-26T07:22:47;1999.90;;;999.90;;
69775;SDS011;57049;51.450;-2.516;2023-03-26T07:25:13;1999.90;;;999.90;;
69775;SDS011;57049;51.450;-2.516;2023-03-26T07:27:45;1999.90;;;999.90;;
69775;SDS011;57049;51.450;-2.516;2023-03-26T07:30:31;1999.90;;;999.90;;
69775;SDS011;57049;51.450;-2.516;2023-03-26T07:33:16;1999.90;;;999.90;;
69775;SDS011;57049;51.450;-2.516;2023-03-26T07:43:35;1999.90;;;999.90;;
69775;SDS011;57049;51.450;-2.516;2023-03-26T07:46:23;1999.90;;;999.90;;
69775;SDS011;57049;51.450;-2.516;2023-03-26T07:48:53;1999.90;;;999.90;;
69775;SDS011;57049;51.450;-2.516;2023-03-26T07:51:22;1999.90;;;999.90;;
69775;SDS011;57049;51.450;-2.516;2023-03-26T07:53:48;1999.90;;;999.90;;
69775;SDS011;57049;51.450;-2.516;2023-03-26T07:56:14;1999.90;;;999.90;;
69775;SDS011;57049;51.450;-2.516;2023-03-26T07:59:02;1999.90;;;999.90;;
69775;SDS011;57049;51.450;-2.516;2023-03-26T08:02:11;1999.90;;;999.90;;
69775;SDS011;57049;51.450;-2.516;2023-03-26T08:04:52;1999.90;;;999.90;;
69775;SDS011;57049;51.450;-2.516;2023-03-26T08:15:57;80.18;;;12.15;;
69775;SDS011;57049;51.450;-2.516;2023-03-26T08:18:45;1999.90;;;999.90;;
69775;SDS011;57049;51.450;-2.516;2023-03-26T08:21:27;1999.90;;;999.90;;
69775;SDS011;57049;51.450;-2.516;2023-03-26T08:24:04;1999.90;;;999.90;;
69775;SDS011;57049;51.450;-2.516;2023-03-26T08:29:23;1999.90;;;999.90;;
69775;SDS011;57049;51.450;-2.516;2023-03-26T08:31:50;1999.90;;;999.90;;
69775;SDS011;57049;51.450;-2.516;2023-03-26T08:34:17;1999.90;;;999.90;;
69775;SDS011;57049;51.450;-2.516;2023-03-26T08:36:42;1999.90;;;999.90;;
69775;SDS011;57049;51.450;-2.516;2023-03-26T08:39:07;1999.90;;;999.90;;
69775;SDS011;57049;51.450;-2.516;2023-03-26T09:14:44;1040.28;;;509.20;;
69775;SDS011;57049;51.450;-2.516;2023-03-26T09:21:12;1999.90;;;999.90;;
69775;SDS011;57049;51.450;-2.516;2023-03-26T09:34:43;1999.90;;;999.90;;
69775;SDS011;57049;51.450;-2.516;2023-03-26T09:37:55;1999.90;;;999.90;;
69775;SDS011;57049;51.450;-2.516;2023-03-26T09:40:34;1999.90;;;999.90;;
69775;SDS011;57049;51.450;-2.516;2023-03-26T09:54:40;1999.90;;;999.90;;
69775;SDS011;57049;51.450;-2.516;2023-03-26T10:52:05;1999.90;;;999.90;;
69775;SDS011;57049;51.450;-2.516;2023-03-26T10:58:11;1999.90;;;999.90;;
69775;SDS011;57049;51.450;-2.516;2023-03-26T11:00:38;1999.90;;;999.90;;
69775;SDS011;57049;51.450;-2.516;2023-03-26T11:08:23;1999.90;;;999.90;;
69775;SDS011;57049;51.450;-2.516;2023-03-26T11:11:23;1999.90;;;999.90;;
69775;SDS011;57049;51.450;-2.516;2023-03-26T11:22:26;91.25;;;26.52;;
69775;SDS011;57049;51.450;-2.516;2023-03-26T11:33:21;1999.90;;;999.90;;
69775;SDS011;57049;51.450;-2.516;2023-03-26T11:35:54;1999.90;;;999.90;;
69775;SDS011;57049;51.450;-2.516;2023-03-26T11:38:32;607.27;;;101.43;;
69775;SDS011;57049;51.450;-2.516;2023-03-26T11:41:26;1999.90;;;999.90;;
69775;SDS011;57049;51.450;-2.516;2023-03-26T11:43:55;768.78;;;332.10;;
69775;SDS011;57049;51.450;-2.516;2023-03-26T11:46:24;457.65;;;158.93;;
69775;SDS011;57049;51.450;-2.516;2023-03-26T11:49:00;702.42;;;273.90;;
69775;SDS011;57049;51.450;-2.516;2023-03-26T11:51:37;1999.90;;;999.90;;
69775;SDS011;57049;51.450;-2.516;2023-03-26T11:54:04;257.55;;;70.43;;
69775;SDS011;57049;51.450;-2.516;2023-03-26T12:04:35;345.67;;;68.77;;
69775;SDS011;57049;51.450;-2.516;2023-03-26T12:07:18;423.55;;;91.40;;
69775;SDS011;57049;51.450;-2.516;2023-03-26T12:09:48;410.35;;;84.93;;
69775;SDS011;57049;51.450;-2.516;2023-03-26T12:12:14;376.10;;;74.72;;
69775;SDS011;57049;51.450;-2.516;2023-03-26T12:14:42;570.90;;;145.63;;
69775;SDS011;57049;51.450;-2.516;2023-03-26T12:17:11;381.93;;;109.97;;
69775;SDS011;57049;51.450;-2.516;2023-03-26T12:19:40;296.00;;;65.22;;
69775;SDS011;57049;51.450;-2.516;2023-03-26T12:25:15;154.18;;;23.98;;
69775;SDS011;57049;51.450;-2.516;2023-03-26T12:27:43;1999.90;;;999.90;;
69775;SDS011;57049;51.450;-2.516;2023-03-26T12:30:26;1036.23;;;396.30;;
69775;SDS011;57049;51.450;-2.516;2023-03-26T12:33:05;449.33;;;108.43;;
69775;SDS011;57049;51.450;-2.516;2023-03-26T12:35:38;1213.90;;;554.58;;
69775;SDS011;57049;51.450;-2.516;2023-03-26T12:40:46;405.73;;;83.85;;
69775;SDS011;57049;51.450;-2.516;2023-03-26T12:43:20;412.63;;;101.30;;
69775;SDS011;57049;51.450;-2.516;2023-03-26T12:45:52;564.97;;;125.43;;
69775;SDS011;57049;51.450;-2.516;2023-03-26T12:48:20;413.63;;;75.10;;
69775;SDS011;57049;51.450;-2.516;2023-03-26T12:51:11;371.52;;;113.95;;
69775;SDS011;57049;51.450;-2.516;2023-03-26T12:53:57;1999.90;;;999.90;;
69775;SDS011;57049;51.450;-2.516;2023-03-26T13:10:29;914.47;;;380.07;;
69775;SDS011;57049;51.450;-2.516;2023-03-26T13:16:13;470.63;;;83.05;;
69775;SDS011;57049;51.450;-2.516;2023-03-26T13:18:53;1220.97;;;549.90;;
69775;SDS011;57049;51.450;-2.516;2023-03-26T13:21:29;549.17;;;102.20;;
69775;SDS011;57049;51.450;-2.516;2023-03-26T13:29:24;585.00;;;119.82;;
69775;SDS011;57049;51.450;-2.516;2023-03-26T13:32:12;1221.03;;;547.70;;
69775;SDS011;57049;51.450;-2.516;2023-03-26T13:34:48;966.63;;;359.98;;
69775;SDS011;57049;51.450;-2.516;2023-03-26T13:48:13;1999.90;;;999.90;;
69775;SDS011;57049;51.450;-2.516;2023-03-26T13:50:43;530.93;;;151.83;;
69775;SDS011;57049;51.450;-2.516;2023-03-26T13:53:20;355.52;;;78.70;;
69775;SDS011;57049;51.450;-2.516;2023-03-26T13:55:51;1143.75;;;531.83;;
69775;SDS011;57049;51.450;-2.516;2023-03-26T14:01:08;474.45;;;110.88;;
69775;SDS011;57049;51.450;-2.516;2023-03-26T14:03:54;547.00;;;145.60;;
69775;SDS011;57049;51.450;-2.516;2023-03-26T14:06:36;628.08;;;162.00;;
69775;SDS011;57049;51.450;-2.516;2023-03-26T14:09:13;274.08;;;71.18;;
69775;SDS011;57049;51.450;-2.516;2023-03-26T14:16:56;167.20;;;80.17;;
69775;SDS011;57049;51.450;-2.516;2023-03-26T14:20:31;428.90;;;90.38;;
69775;SDS011;57049;51.450;-2.516;2023-03-26T14:33:56;1565.13;;;761.88;;
69775;SDS011;57049;51.450;-2.516;2023-03-26T14:41:59;516.47;;;138.80;;
69775;SDS011;57049;51.450;-2.516;2023-03-26T14:47:17;1999.90;;;999.90;;
69775;SDS011;57049;51.450;-2.516;2023-03-26T14:52:36;1247.40;;;556.00;;
69775;SDS011;57049;51.450;-2.516;2023-03-26T15:09:33;1649.28;;;777.63;;
69775;SDS011;57049;51.450;-2.516;2023-03-26T15:11:52;1500.80;;;708.10;;
69775;SDS011;57049;51.450;-2.516;2023-03-26T15:25:49;198.57;;;33.53;;
69775;SDS011;57049;51.450;-2.516;2023-03-26T15:34:50;295.77;;;39.83;;
69775;SDS011;57049;51.450;-2.516;2023-03-26T15:40:25;395.47;;;98.30;;
69775;SDS011;57049;51.450;-2.516;2023-03-26T15:45:29;571.83;;;121.05;;
69775;SDS011;57049;51.450;-2.516;2023-03-26T15:50:38;641.17;;;132.88;;
69775;SDS011;57049;51.450;-2.516;2023-03-26T15:53:17;1502.03;;;699.10;;
69775;SDS011;57049;51.450;-2.516;2023-03-26T15:59:04;1192.95;;;542.17;;
69775;SDS011;57049;51.450;-2.516;2023-03-26T16:07:43;175.37;;;40.10;;
69775;SDS011;57049;51.450;-2.516;2023-03-26T16:21:01;327.90;;;66.40;;
69775;SDS011;57049;51.450;-2.516;2023-03-26T16:26:11;1999.90;;;999.90;;
69775;SDS011;57049;51.450;-2.516;2023-03-26T16:34:06;1999.90;;;999.90;;
69775;SDS011;57049;51.450;-2.516;2023-03-26T16:36:44;101.75;;;17.27;;
69775;SDS011;57049;51.450;-2.516;2023-03-26T16:39:18;1999.90;;;999.90;;
69775;SDS011;57049;51.450;-2.516;2023-03-26T16:45:45;1999.90;;;999.90;;
69775;SDS011;57049;51.450;-2.516;2023-03-26T16:50:48;1999.90;;;999.90;;
69775;SDS011;57049;51.450;-2.516;2023-03-26T17:02:04;1999.90;;;999.90;;
69775;SDS011;57049;51.450;-2.516;2023-03-26T17:04:45;1999.90;;;999.90;;
69775;SDS011;57049;51.450;-2.516;2023-03-26T17:12:48;1999.90;;;999.90;;
69775;SDS011;57049;51.450;-2.516;2023-03-26T17:18:20;1999.90;;;999.90;;
69775;SDS011;57049;51.450;-2.516;2023-03-26T17:31:59;1999.90;;;999.90;;
69775;SDS011;57049;51.450;-2.516;2023-03-26T17:45:31;1999.90;;;999.90;;
69775;SDS011;57049;51.450;-2.516;2023-03-26T17:50:43;1999.90;;;999.90;;
69775;SDS011;57049;51.450;-2.516;2023-03-26T17:52:58;1999.90;;;999.90;;
69775;SDS011;57049;51.450;-2.516;2023-03-26T17:55:34;1999.90;;;999.90;;
69775;SDS011;57049;51.450;-2.516;2023-03-26T17:58:03;1999.90;;;999.90;;
69775;SDS011;57049;51.450;-2.516;2023-03-26T18:00:34;1999.90;;;999.90;;
69775;SDS011;57049;51.450;-2.516;2023-03-26T18:06:15;1999.90;;;999.90;;
69775;SDS011;57049;51.450;-2.516;2023-03-26T18:16:50;1999.90;;;999.90;;
69775;SDS011;57049;51.450;-2.516;2023-03-26T18:19:24;1999.90;;;999.90;;
69775;SDS011;57049;51.450;-2.516;2023-03-26T18:24:30;1999.90;;;999.90;;
69775;SDS011;57049;51.450;-2.516;2023-03-26T18:29:27;1999.90;;;999.90;;
69775;SDS011;57049;51.450;-2.516;2023-03-26T18:32:00;1999.90;;;999.90;;
69775;SDS011;57049;51.450;-2.516;2023-03-26T18:34:32;1999.90;;;999.90;;
69775;SDS011;57049;51.450;-2.516;2023-03-26T18:36:59;1999.90;;;999.90;;
69775;SDS011;57049;51.450;-2.516;2023-03-26T18:39:36;1999.90;;;999.90;;
69775;SDS011;57049;51.450;-2.516;2023-03-26T18:42:02;1999.90;;;999.90;;
69775;SDS011;57049;51.450;-2.516;2023-03-26T18:44:30;1999.90;;;999.90;;
69775;SDS011;57049;51.450;-2.516;2023-03-26T18:46:59;1999.90;;;999.90;;
69775;SDS011;57049;51.450;-2.516;2023-03-26T18:49:29;1999.90;;;999.90;;
69775;SDS011;57049;51.450;-2.516;2023-03-26T18:51:55;1999.90;;;999.90;;
69775;SDS011;57049;51.450;-2.516;2023-03-26T18:54:22;1999.90;;;999.90;;
69775;SDS011;57049;51.450;-2.516;2023-03-26T18:56:48;1999.90;;;999.90;;
69775;SDS011;57049;51.450;-2.516;2023-03-26T18:59:19;1999.90;;;999.90;;
69775;SDS011;57049;51.450;-2.516;2023-03-26T19:01:52;1999.90;;;999.90;;
69775;SDS011;57049;51.450;-2.516;2023-03-26T19:04:21;1999.90;;;999.90;;
69775;SDS011;57049;51.450;-2.516;2023-03-26T19:06:47;1999.90;;;999.90;;
69775;SDS011;57049;51.450;-2.516;2023-03-26T19:09:17;1999.90;;;999.90;;
69775;SDS011;57049;51.450;-2.516;2023-03-26T19:11:44;1999.90;;;999.90;;
69775;SDS011;57049;51.450;-2.516;2023-03-26T19:14:21;1999.90;;;999.90;;
69775;SDS011;57049;51.450;-2.516;2023-03-26T19:16:48;1999.90;;;999.90;;
69775;SDS011;57049;51.450;-2.516;2023-03-26T19:19:25;1999.90;;;999.90;;
69775;SDS011;57049;51.450;-2.516;2023-03-26T19:21:55;1999.90;;;999.90;;
69775;SDS011;57049;51.450;-2.516;2023-03-26T19:24:21;1999.90;;;999.90;;
69775;SDS011;57049;51.450;-2.516;2023-03-26T19:26:47;1999.90;;;999.90;;
69775;SDS011;57049;51.450;-2.516;2023-03-26T19:29:22;1999.90;;;999.90;;
69775;SDS011;57049;51.450;-2.516;2023-03-26T19:31:51;1999.90;;;999.90;;
69775;SDS011;57049;51.450;-2.516;2023-03-26T19:34:33;1999.90;;;999.90;;
69775;SDS011;57049;51.450;-2.516;2023-03-26T19:37:03;1999.90;;;999.90;;
69775;SDS011;57049;51.450;-2.516;2023-03-26T19:39:46;1999.90;;;999.90;;
69775;SDS011;57049;51.450;-2.516;2023-03-26T19:42:18;1999.90;;;999.90;;
69775;SDS011;57049;51.450;-2.516;2023-03-26T19:44:50;1999.90;;;999.90;;
69775;SDS011;57049;51.450;-2.516;2023-03-26T19:47:21;1999.90;;;999.90;;
69775;SDS011;57049;51.450;-2.516;2023-03-26T19:49:50;1999.90;;;999.90;;
69775;SDS011;57049;51.450;-2.516;2023-03-26T19:52:21;1999.90;;;999.90;;
69775;SDS011;57049;51.450;-2.516;2023-03-26T19:57:19;1999.90;;;999.90;;
69775;SDS011;57049;51.450;-2.516;2023-03-26T19:59:49;1999.90;;;999.90;;
69775;SDS011;57049;51.450;-2.516;2023-03-26T20:02:15;1999.90;;;999.90;;
69775;SDS011;57049;51.450;-2.516;2023-03-26T20:04:41;1999.90;;;999.90;;
69775;SDS011;57049;51.450;-2.516;2023-03-26T20:07:08;1999.90;;;999.90;;
69775;SDS011;57049;51.450;-2.516;2023-03-26T20:09:38;1999.90;;;999.90;;
69775;SDS011;57049;51.450;-2.516;2023-03-26T20:12:04;1999.90;;;999.90;;
69775;SDS011;57049;51.450;-2.516;2023-03-26T20:14:30;1999.90;;;999.90;;
69775;SDS011;57049;51.450;-2.516;2023-03-26T20:16:56;1999.90;;;999.90;;
69775;SDS011;57049;51.450;-2.516;2023-03-26T20:19:22;1999.90;;;999.90;;
69775;SDS011;57049;51.450;-2.516;2023-03-26T20:21:50;1999.90;;;999.90;;
69775;SDS011;57049;51.450;-2.516;2023-03-26T20:24:17;1999.90;;;999.90;;